Decoded Metar for KPHF (NEWPORT NEWS in VA, USA) (IATA:PHF) | Meteo·Mobile Aviation Weather
aviador You're here:

KPHF Decoded Metar

NEWPORT NEWS in VA, USA
Report Time2019-03-23 08:54:00
UTC Time2019-03-23 09:10:20
Flight Rules vfr VFR
Wind290° at 07 kt
W.Decomp.*RWY 25: 4.6 kt HW 5.3 kt RCW
RWY 02: 1.1 kt HW 6.9 kt LCW
W.Rank290° ranks 28
Current wind is below 290° avg. (7.7)
Visibility9999 m
Phenomena:N/A
Clouds:N/A
Expected CloudBase > 3,200 ft AGL from Temp-Dew spread
CeilingNone
Temp05°C (ISA -10)
Dew Point-3°C (57% RH)
AAT0.1°C
QNH1015 hPa
Density Alt-1,161 ft
Elevation39 ft
Report Wrong Elevation
Raw Report
METAR KPHF 230854Z AUTO 29007KT 10SM CLR 05/M03 A2996 RMK AO2 SLP144
T00501033 53012=

Extra information for KPHF:More info

Metar Taf Metar & Taf Last 4 Metars F.Rules Stats Wind Profile Meteogram Temp Stats Airport Information Weather charts Add Link Nearby VenuesMetar ALERT Operation Metar Decoded Social comments

AIRNAV info for KPHF